sensor_id;sensor_type;location;lat;lon;timestamp;P1;durP1;ratioP1;P2;durP2;ratioP2
20721;SDS011;10522;52.198;9.890;2024-03-06T00:01:44;22.20;;;12.10;;
20721;SDS011;10522;52.198;9.890;2024-03-06T00:04:09;19.63;;;11.67;;
20721;SDS011;10522;52.198;9.890;2024-03-06T00:06:35;18.13;;;11.53;;
20721;SDS011;10522;52.198;9.890;2024-03-06T00:09:01;18.77;;;11.70;;
20721;SDS011;10522;52.198;9.890;2024-03-06T00:11:28;17.30;;;11.43;;
20721;SDS011;10522;52.198;9.890;2024-03-06T00:13:53;23.10;;;12.47;;
20721;SDS011;10522;52.198;9.890;2024-03-06T00:16:19;18.97;;;12.03;;
20721;SDS011;10522;52.198;9.890;2024-03-06T00:18:45;21.63;;;13.07;;
20721;SDS011;10522;52.198;9.890;2024-03-06T00:21:11;20.40;;;12.80;;
20721;SDS011;10522;52.198;9.890;2024-03-06T00:23:37;21.03;;;12.97;;
20721;SDS011;10522;52.198;9.890;2024-03-06T00:26:03;21.40;;;13.37;;
20721;SDS011;10522;52.198;9.890;2024-03-06T00:28:29;23.23;;;13.27;;
20721;SDS011;10522;52.198;9.890;2024-03-06T00:30:55;21.97;;;13.37;;
20721;SDS011;10522;52.198;9.890;2024-03-06T00:33:21;21.47;;;12.87;;
20721;SDS011;10522;52.198;9.890;2024-03-06T00:35:48;22.60;;;14.07;;
20721;SDS011;10522;52.198;9.890;2024-03-06T00:38:14;24.67;;;14.73;;
20721;SDS011;10522;52.198;9.890;2024-03-06T00:40:40;25.23;;;15.73;;
20721;SDS011;10522;52.198;9.890;2024-03-06T00:43:06;25.97;;;15.13;;
20721;SDS011;10522;52.198;9.890;2024-03-06T00:45:32;27.17;;;16.20;;
20721;SDS011;10522;52.198;9.890;2024-03-06T00:47:58;26.90;;;15.33;;
20721;SDS011;10522;52.198;9.890;2024-03-06T00:50:23;25.53;;;14.57;;
20721;SDS011;10522;52.198;9.890;2024-03-06T00:52:49;28.30;;;16.90;;
20721;SDS011;10522;52.198;9.890;2024-03-06T00:55:15;27.30;;;16.80;;
20721;SDS011;10522;52.198;9.890;2024-03-06T00:57:41;22.80;;;15.23;;
20721;SDS011;10522;52.198;9.890;2024-03-06T01:00:07;28.90;;;15.17;;
20721;SDS011;10522;52.198;9.890;2024-03-06T01:02:39;25.93;;;16.10;;
20721;SDS011;10522;52.198;9.890;2024-03-06T01:05:05;28.33;;;16.67;;
20721;SDS011;10522;52.198;9.890;2024-03-06T01:07:32;26.20;;;16.60;;
20721;SDS011;10522;52.198;9.890;2024-03-06T01:09:59;25.33;;;15.93;;
20721;SDS011;10522;52.198;9.890;2024-03-06T01:12:26;31.57;;;16.53;;
20721;SDS011;10522;52.198;9.890;2024-03-06T01:14:52;24.77;;;15.83;;
20721;SDS011;10522;52.198;9.890;2024-03-06T01:17:18;23.77;;;15.10;;
20721;SDS011;10522;52.198;9.890;2024-03-06T01:19:43;30.20;;;17.47;;
20721;SDS011;10522;52.198;9.890;2024-03-06T01:22:09;29.27;;;16.80;;
20721;SDS011;10522;52.198;9.890;2024-03-06T01:24:35;24.17;;;15.30;;
20721;SDS011;10522;52.198;9.890;2024-03-06T01:27:01;26.97;;;16.30;;
20721;SDS011;10522;52.198;9.890;2024-03-06T01:29:31;26.80;;;16.40;;
20721;SDS011;10522;52.198;9.890;2024-03-06T01:31:57;28.27;;;15.47;;
20721;SDS011;10522;52.198;9.890;2024-03-06T01:34:23;24.40;;;15.63;;
20721;SDS011;10522;52.198;9.890;2024-03-06T01:36:50;28.27;;;17.00;;
20721;SDS011;10522;52.198;9.890;2024-03-06T01:39:15;29.13;;;16.77;;
20721;SDS011;10522;52.198;9.890;2024-03-06T01:41:48;23.97;;;15.20;;
20721;SDS011;10522;52.198;9.890;2024-03-06T01:44:15;25.70;;;15.90;;
20721;SDS011;10522;52.198;9.890;2024-03-06T01:46:42;30.30;;;16.57;;
20721;SDS011;10522;52.198;9.890;2024-03-06T01:49:12;23.17;;;15.73;;
20721;SDS011;10522;52.198;9.890;2024-03-06T01:51:42;27.63;;;16.33;;
20721;SDS011;10522;52.198;9.890;2024-03-06T01:54:13;23.17;;;15.63;;
20721;SDS011;10522;52.198;9.890;2024-03-06T01:56:39;24.33;;;14.37;;
20721;SDS011;10522;52.198;9.890;2024-03-06T01:59:11;24.93;;;16.43;;
20721;SDS011;10522;52.198;9.890;2024-03-06T02:01:38;25.40;;;16.13;;
20721;SDS011;10522;52.198;9.890;2024-03-06T02:04:05;26.37;;;15.70;;
20721;SDS011;10522;52.198;9.890;2024-03-06T02:06:34;27.47;;;15.47;;
20721;SDS011;10522;52.198;9.890;2024-03-06T02:09:00;26.40;;;15.60;;
20721;SDS011;10522;52.198;9.890;2024-03-06T02:11:28;27.27;;;15.07;;
20721;SDS011;10522;52.198;9.890;2024-03-06T02:13:54;26.73;;;15.57;;
20721;SDS011;10522;52.198;9.890;2024-03-06T02:16:20;25.10;;;15.97;;
20721;SDS011;10522;52.198;9.890;2024-03-06T02:18:55;26.80;;;16.87;;
20721;SDS011;10522;52.198;9.890;2024-03-06T02:21:24;27.00;;;15.97;;
20721;SDS011;10522;52.198;9.890;2024-03-06T02:23:50;25.50;;;15.93;;
20721;SDS011;10522;52.198;9.890;2024-03-06T02:26:20;26.23;;;15.57;;
20721;SDS011;10522;52.198;9.890;2024-03-06T02:28:49;28.23;;;15.80;;
20721;SDS011;10522;52.198;9.890;2024-03-06T02:31:16;24.93;;;15.00;;
20721;SDS011;10522;52.198;9.890;2024-03-06T02:33:46;25.13;;;15.87;;
20721;SDS011;10522;52.198;9.890;2024-03-06T02:36:13;26.67;;;16.33;;
20721;SDS011;10522;52.198;9.890;2024-03-06T02:38:39;27.30;;;15.70;;
20721;SDS011;10522;52.198;9.890;2024-03-06T02:41:05;24.73;;;16.47;;
20721;SDS011;10522;52.198;9.890;2024-03-06T02:43:32;28.53;;;15.33;;
20721;SDS011;10522;52.198;9.890;2024-03-06T02:45:58;27.43;;;16.20;;
20721;SDS011;10522;52.198;9.890;2024-03-06T02:48:24;26.47;;;15.93;;
20721;SDS011;10522;52.198;9.890;2024-03-06T02:50:50;24.53;;;14.40;;
20721;SDS011;10522;52.198;9.890;2024-03-06T02:53:16;25.60;;;15.53;;
20721;SDS011;10522;52.198;9.890;2024-03-06T02:55:41;25.37;;;16.03;;
20721;SDS011;10522;52.198;9.890;2024-03-06T02:58:07;24.93;;;15.47;;
20721;SDS011;10522;52.198;9.890;2024-03-06T03:00:33;24.47;;;16.10;;
20721;SDS011;10522;52.198;9.890;2024-03-06T03:02:58;26.93;;;16.33;;
20721;SDS011;10522;52.198;9.890;2024-03-06T03:05:24;30.03;;;15.40;;
20721;SDS011;10522;52.198;9.890;2024-03-06T03:07:50;25.60;;;15.93;;
20721;SDS011;10522;52.198;9.890;2024-03-06T03:10:16;24.80;;;15.70;;
20721;SDS011;10522;52.198;9.890;2024-03-06T03:12:42;25.87;;;15.60;;
20721;SDS011;10522;52.198;9.890;2024-03-06T03:15:08;25.93;;;16.30;;
20721;SDS011;10522;52.198;9.890;2024-03-06T03:17:34;25.40;;;16.27;;
20721;SDS011;10522;52.198;9.890;2024-03-06T03:20:00;24.33;;;15.13;;
20721;SDS011;10522;52.198;9.890;2024-03-06T03:22:35;30.87;;;16.40;;
20721;SDS011;10522;52.198;9.890;2024-03-06T03:25:10;25.17;;;15.57;;
20721;SDS011;10522;52.198;9.890;2024-03-06T03:27:39;22.97;;;15.13;;
20721;SDS011;10522;52.198;9.890;2024-03-06T03:30:11;26.07;;;15.90;;
20721;SDS011;10522;52.198;9.890;2024-03-06T03:32:38;25.27;;;14.53;;
20721;SDS011;10522;52.198;9.890;2024-03-06T03:35:04;26.37;;;16.03;;
20721;SDS011;10522;52.198;9.890;2024-03-06T03:37:30;31.80;;;16.53;;
20721;SDS011;10522;52.198;9.890;2024-03-06T03:39:56;28.57;;;16.97;;
20721;SDS011;10522;52.198;9.890;2024-03-06T03:42:22;25.77;;;15.70;;
20721;SDS011;10522;52.198;9.890;2024-03-06T03:44:47;29.50;;;16.97;;
20721;SDS011;10522;52.198;9.890;2024-03-06T03:47:13;29.30;;;16.33;;
20721;SDS011;10522;52.198;9.890;2024-03-06T03:49:39;23.20;;;14.90;;
20721;SDS011;10522;52.198;9.890;2024-03-06T03:52:04;27.33;;;15.70;;
20721;SDS011;10522;52.198;9.890;2024-03-06T03:54:30;25.07;;;15.80;;
20721;SDS011;10522;52.198;9.890;2024-03-06T03:56:55;25.40;;;14.83;;
20721;SDS011;10522;52.198;9.890;2024-03-06T03:59:23;28.40;;;15.93;;
20721;SDS011;10522;52.198;9.890;2024-03-06T04:01:48;27.00;;;16.17;;
20721;SDS011;10522;52.198;9.890;2024-03-06T04:04:15;24.57;;;14.87;;
20721;SDS011;10522;52.198;9.890;2024-03-06T04:06:40;23.53;;;14.60;;
20721;SDS011;10522;52.198;9.890;2024-03-06T04:09:06;32.43;;;16.77;;
20721;SDS011;10522;52.198;9.890;2024-03-06T04:11:34;30.00;;;16.97;;
20721;SDS011;10522;52.198;9.890;2024-03-06T04:14:06;23.60;;;15.30;;
20721;SDS011;10522;52.198;9.890;2024-03-06T04:16:32;26.57;;;16.00;;
20721;SDS011;10522;52.198;9.890;2024-03-06T04:18:58;23.13;;;14.97;;
20721;SDS011;10522;52.198;9.890;2024-03-06T04:21:24;31.23;;;15.57;;
20721;SDS011;10522;52.198;9.890;2024-03-06T04:23:50;26.20;;;15.73;;
20721;SDS011;10522;52.198;9.890;2024-03-06T04:26:15;30.47;;;15.83;;
20721;SDS011;10522;52.198;9.890;2024-03-06T04:28:42;26.10;;;15.17;;
20721;SDS011;10522;52.198;9.890;2024-03-06T04:31:08;26.07;;;15.47;;
20721;SDS011;10522;52.198;9.890;2024-03-06T04:33:34;31.10;;;15.87;;
20721;SDS011;10522;52.198;9.890;2024-03-06T04:36:01;25.57;;;14.40;;
20721;SDS011;10522;52.198;9.890;2024-03-06T04:38:28;25.70;;;16.10;;
20721;SDS011;10522;52.198;9.890;2024-03-06T04:40:54;24.70;;;15.13;;
20721;SDS011;10522;52.198;9.890;2024-03-06T04:43:20;24.33;;;15.33;;
20721;SDS011;10522;52.198;9.890;2024-03-06T04:45:45;25.10;;;15.43;;
20721;SDS011;10522;52.198;9.890;2024-03-06T04:48:11;23.97;;;14.90;;
20721;SDS011;10522;52.198;9.890;2024-03-06T04:50:37;25.40;;;15.53;;
20721;SDS011;10522;52.198;9.890;2024-03-06T04:53:02;28.53;;;15.70;;
20721;SDS011;10522;52.198;9.890;2024-03-06T04:55:28;27.87;;;15.60;;
20721;SDS011;10522;52.198;9.890;2024-03-06T04:57:55;25.50;;;14.70;;
20721;SDS011;10522;52.198;9.890;2024-03-06T05:00:21;28.23;;;15.97;;
20721;SDS011;10522;52.198;9.890;2024-03-06T05:02:48;26.13;;;16.20;;
20721;SDS011;10522;52.198;9.890;2024-03-06T05:05:16;28.07;;;15.93;;
20721;SDS011;10522;52.198;9.890;2024-03-06T05:07:42;25.17;;;15.83;;
20721;SDS011;10522;52.198;9.890;2024-03-06T05:10:08;27.40;;;15.50;;
20721;SDS011;10522;52.198;9.890;2024-03-06T05:12:34;23.87;;;13.40;;
20721;SDS011;10522;52.198;9.890;2024-03-06T05:15:00;29.53;;;15.67;;
20721;SDS011;10522;52.198;9.890;2024-03-06T05:17:26;24.93;;;15.47;;
20721;SDS011;10522;52.198;9.890;2024-03-06T05:19:51;25.30;;;14.53;;
20721;SDS011;10522;52.198;9.890;2024-03-06T05:22:19;28.93;;;14.83;;
20721;SDS011;10522;52.198;9.890;2024-03-06T05:24:46;28.00;;;16.27;;
20721;SDS011;10522;52.198;9.890;2024-03-06T05:27:12;29.23;;;14.97;;
20721;SDS011;10522;52.198;9.890;2024-03-06T05:29:41;25.73;;;15.57;;
20721;SDS011;10522;52.198;9.890;2024-03-06T05:32:07;28.77;;;16.03;;
20721;SDS011;10522;52.198;9.890;2024-03-06T05:34:33;28.27;;;15.57;;
20721;SDS011;10522;52.198;9.890;2024-03-06T05:36:59;27.10;;;15.23;;
20721;SDS011;10522;52.198;9.890;2024-03-06T05:39:26;23.50;;;15.20;;
20721;SDS011;10522;52.198;9.890;2024-03-06T05:41:54;24.97;;;15.20;;
20721;SDS011;10522;52.198;9.890;2024-03-06T05:44:20;28.97;;;15.50;;
20721;SDS011;10522;52.198;9.890;2024-03-06T05:46:46;26.40;;;15.37;;
20721;SDS011;10522;52.198;9.890;2024-03-06T05:49:12;22.07;;;13.80;;
20721;SDS011;10522;52.198;9.890;2024-03-06T05:51:39;29.03;;;16.20;;
20721;SDS011;10522;52.198;9.890;2024-03-06T05:54:04;26.70;;;15.37;;
20721;SDS011;10522;52.198;9.890;2024-03-06T05:56:33;28.13;;;15.50;;
20721;SDS011;10522;52.198;9.890;2024-03-06T05:58:59;24.97;;;14.67;;
20721;SDS011;10522;52.198;9.890;2024-03-06T06:01:29;28.00;;;15.97;;
20721;SDS011;10522;52.198;9.890;2024-03-06T06:03:55;24.27;;;15.33;;
20721;SDS011;10522;52.198;9.890;2024-03-06T06:06:21;24.17;;;15.40;;
20721;SDS011;10522;52.198;9.890;2024-03-06T06:08:47;23.77;;;15.37;;
20721;SDS011;10522;52.198;9.890;2024-03-06T06:11:13;28.93;;;15.57;;
20721;SDS011;10522;52.198;9.890;2024-03-06T06:13:39;27.97;;;16.30;;
20721;SDS011;10522;52.198;9.890;2024-03-06T06:16:04;25.20;;;15.03;;
20721;SDS011;10522;52.198;9.890;2024-03-06T06:18:31;28.53;;;15.27;;
20721;SDS011;10522;52.198;9.890;2024-03-06T06:20:57;26.90;;;16.30;;
20721;SDS011;10522;52.198;9.890;2024-03-06T06:23:23;31.43;;;15.60;;
20721;SDS011;10522;52.198;9.890;2024-03-06T06:25:49;26.90;;;14.97;;
20721;SDS011;10522;52.198;9.890;2024-03-06T06:28:15;27.97;;;15.33;;
20721;SDS011;10522;52.198;9.890;2024-03-06T06:30:40;26.27;;;13.70;;
20721;SDS011;10522;52.198;9.890;2024-03-06T06:33:06;23.87;;;15.50;;
20721;SDS011;10522;52.198;9.890;2024-03-06T06:35:33;26.13;;;15.30;;
20721;SDS011;10522;52.198;9.890;2024-03-06T06:37:59;28.47;;;15.60;;
20721;SDS011;10522;52.198;9.890;2024-03-06T06:40:25;25.43;;;14.77;;
20721;SDS011;10522;52.198;9.890;2024-03-06T06:42:53;24.63;;;15.17;;
20721;SDS011;10522;52.198;9.890;2024-03-06T06:45:19;27.60;;;16.23;;
20721;SDS011;10522;52.198;9.890;2024-03-06T06:47:45;27.53;;;16.77;;
20721;SDS011;10522;52.198;9.890;2024-03-06T06:50:11;24.67;;;14.87;;
20721;SDS011;10522;52.198;9.890;2024-03-06T06:52:40;25.40;;;14.13;;
20721;SDS011;10522;52.198;9.890;2024-03-06T06:55:06;25.83;;;15.87;;
20721;SDS011;10522;52.198;9.890;2024-03-06T06:57:36;24.37;;;14.17;;
20721;SDS011;10522;52.198;9.890;2024-03-06T07:00:02;23.60;;;15.27;;
20721;SDS011;10522;52.198;9.890;2024-03-06T07:02:36;24.20;;;14.83;;
20721;SDS011;10522;52.198;9.890;2024-03-06T07:05:03;22.40;;;14.53;;
20721;SDS011;10522;52.198;9.890;2024-03-06T07:07:30;24.77;;;14.87;;
20721;SDS011;10522;52.198;9.890;2024-03-06T07:09:55;25.53;;;15.53;;
20721;SDS011;10522;52.198;9.890;2024-03-06T07:12:21;23.73;;;14.77;;
20721;SDS011;10522;52.198;9.890;2024-03-06T07:14:47;21.93;;;15.30;;
20721;SDS011;10522;52.198;9.890;2024-03-06T07:17:12;25.33;;;15.23;;
20721;SDS011;10522;52.198;9.890;2024-03-06T07:19:38;25.10;;;14.93;;
20721;SDS011;10522;52.198;9.890;2024-03-06T07:22:04;27.33;;;16.27;;
20721;SDS011;10522;52.198;9.890;2024-03-06T07:24:30;21.63;;;13.83;;
20721;SDS011;10522;52.198;9.890;2024-03-06T07:26:56;25.83;;;14.50;;
20721;SDS011;10522;52.198;9.890;2024-03-06T07:29:21;22.67;;;14.10;;
20721;SDS011;10522;52.198;9.890;2024-03-06T07:31:47;28.47;;;15.57;;
20721;SDS011;10522;52.198;9.890;2024-03-06T07:34:13;23.17;;;15.87;;
20721;SDS011;10522;52.198;9.890;2024-03-06T07:36:39;27.20;;;15.83;;
20721;SDS011;10522;52.198;9.890;2024-03-06T07:39:06;27.50;;;15.63;;
20721;SDS011;10522;52.198;9.890;2024-03-06T07:41:32;26.43;;;14.63;;
20721;SDS011;10522;52.198;9.890;2024-03-06T07:43:58;26.67;;;14.83;;
20721;SDS011;10522;52.198;9.890;2024-03-06T07:46:27;27.53;;;16.10;;
20721;SDS011;10522;52.198;9.890;2024-03-06T07:48:53;26.13;;;16.43;;
20721;SDS011;10522;52.198;9.890;2024-03-06T07:51:19;25.17;;;14.90;;
20721;SDS011;10522;52.198;9.890;2024-03-06T07:53:45;23.33;;;15.37;;
20721;SDS011;10522;52.198;9.890;2024-03-06T07:56:11;26.80;;;16.87;;
20721;SDS011;10522;52.198;9.890;2024-03-06T07:58:37;25.80;;;15.63;;
20721;SDS011;10522;52.198;9.890;2024-03-06T08:01:03;28.70;;;15.97;;
20721;SDS011;10522;52.198;9.890;2024-03-06T08:03:29;31.00;;;14.70;;
20721;SDS011;10522;52.198;9.890;2024-03-06T08:05:55;31.20;;;17.67;;
20721;SDS011;10522;52.198;9.890;2024-03-06T08:08:20;30.07;;;16.43;;
20721;SDS011;10522;52.198;9.890;2024-03-06T08:10:46;28.80;;;15.87;;
20721;SDS011;10522;52.198;9.890;2024-03-06T08:13:12;23.87;;;16.00;;
20721;SDS011;10522;52.198;9.890;2024-03-06T08:15:38;28.17;;;15.70;;
20721;SDS011;10522;52.198;9.890;2024-03-06T08:18:05;24.90;;;15.93;;
20721;SDS011;10522;52.198;9.890;2024-03-06T08:20:31;24.57;;;15.77;;
20721;SDS011;10522;52.198;9.890;2024-03-06T08:22:57;28.40;;;15.50;;
20721;SDS011;10522;52.198;9.890;2024-03-06T08:25:23;28.13;;;16.00;;
20721;SDS011;10522;52.198;9.890;2024-03-06T08:27:49;26.23;;;15.37;;
20721;SDS011;10522;52.198;9.890;2024-03-06T08:30:14;33.37;;;16.27;;
20721;SDS011;10522;52.198;9.890;2024-03-06T08:32:41;27.40;;;15.83;;
20721;SDS011;10522;52.198;9.890;2024-03-06T08:35:09;25.40;;;16.43;;
20721;SDS011;10522;52.198;9.890;2024-03-06T08:37:36;30.23;;;15.83;;
20721;SDS011;10522;52.198;9.890;2024-03-06T08:40:06;23.37;;;15.60;;
20721;SDS011;10522;52.198;9.890;2024-03-06T08:42:32;28.10;;;16.43;;
20721;SDS011;10522;52.198;9.890;2024-03-06T08:44:58;30.33;;;16.23;;
20721;SDS011;10522;52.198;9.890;2024-03-06T08:47:24;27.73;;;15.77;;
20721;SDS011;10522;52.198;9.890;2024-03-06T08:49:49;28.63;;;17.00;;
20721;SDS011;10522;52.198;9.890;2024-03-06T08:52:15;29.97;;;17.00;;
20721;SDS011;10522;52.198;9.890;2024-03-06T08:54:41;27.93;;;17.20;;
20721;SDS011;10522;52.198;9.890;2024-03-06T08:57:07;29.63;;;17.47;;
20721;SDS011;10522;52.198;9.890;2024-03-06T08:59:33;24.47;;;16.37;;
20721;SDS011;10522;52.198;9.890;2024-03-06T09:02:11;27.37;;;16.20;;
20721;SDS011;10522;52.198;9.890;2024-03-06T09:04:43;29.60;;;16.77;;
20721;SDS011;10522;52.198;9.890;2024-03-06T09:07:09;30.83;;;16.97;;
20721;SDS011;10522;52.198;9.890;2024-03-06T09:09:35;27.77;;;17.07;;
20721;SDS011;10522;52.198;9.890;2024-03-06T09:12:07;35.80;;;18.87;;
20721;SDS011;10522;52.198;9.890;2024-03-06T09:14:37;26.87;;;17.63;;
20721;SDS011;10522;52.198;9.890;2024-03-06T09:17:03;29.47;;;16.90;;
20721;SDS011;10522;52.198;9.890;2024-03-06T09:19:30;32.33;;;17.30;;
20721;SDS011;10522;52.198;9.890;2024-03-06T09:21:57;29.20;;;18.03;;
20721;SDS011;10522;52.198;9.890;2024-03-06T09:24:24;31.07;;;17.33;;
20721;SDS011;10522;52.198;9.890;2024-03-06T09:26:51;26.10;;;16.63;;
20721;SDS011;10522;52.198;9.890;2024-03-06T09:29:17;30.70;;;18.47;;
20721;SDS011;10522;52.198;9.890;2024-03-06T09:31:43;29.20;;;17.10;;
20721;SDS011;10522;52.198;9.890;2024-03-06T09:34:09;27.10;;;16.83;;
20721;SDS011;10522;52.198;9.890;2024-03-06T09:36:37;26.63;;;17.60;;
20721;SDS011;10522;52.198;9.890;2024-03-06T09:39:03;30.90;;;18.60;;
20721;SDS011;10522;52.198;9.890;2024-03-06T09:41:33;30.57;;;18.17;;
20721;SDS011;10522;52.198;9.890;2024-03-06T09:43:59;30.27;;;17.87;;
20721;SDS011;10522;52.198;9.890;2024-03-06T09:46:27;26.47;;;16.87;;
20721;SDS011;10522;52.198;9.890;2024-03-06T09:48:54;27.30;;;16.87;;
20721;SDS011;10522;52.198;9.890;2024-03-06T09:51:20;34.83;;;18.83;;
20721;SDS011;10522;52.198;9.890;2024-03-06T09:53:46;31.27;;;19.20;;
20721;SDS011;10522;52.198;9.890;2024-03-06T09:56:16;28.43;;;17.70;;
20721;SDS011;10522;52.198;9.890;2024-03-06T09:58:44;25.17;;;17.37;;
20721;SDS011;10522;52.198;9.890;2024-03-06T10:01:13;31.67;;;18.33;;
20721;SDS011;10522;52.198;9.890;2024-03-06T10:03:44;28.37;;;18.23;;
20721;SDS011;10522;52.198;9.890;2024-03-06T10:06:11;27.43;;;16.93;;
20721;SDS011;10522;52.198;9.890;2024-03-06T10:08:41;34.93;;;20.10;;
20721;SDS011;10522;52.198;9.890;2024-03-06T10:11:07;25.87;;;16.63;;
20721;SDS011;10522;52.198;9.890;2024-03-06T10:13:33;29.43;;;18.33;;
20721;SDS011;10522;52.198;9.890;2024-03-06T10:16:04;30.87;;;17.87;;
20721;SDS011;10522;52.198;9.890;2024-03-06T10:18:35;26.67;;;17.37;;
20721;SDS011;10522;52.198;9.890;2024-03-06T10:21:01;35.97;;;19.93;;
20721;SDS011;10522;52.198;9.890;2024-03-06T10:23:27;34.60;;;19.67;;
20721;SDS011;10522;52.198;9.890;2024-03-06T10:25:54;27.00;;;17.20;;
20721;SDS011;10522;52.198;9.890;2024-03-06T10:28:21;27.67;;;17.83;;
20721;SDS011;10522;52.198;9.890;2024-03-06T10:30:48;26.30;;;16.47;;
20721;SDS011;10522;52.198;9.890;2024-03-06T10:33:14;28.40;;;17.17;;
20721;SDS011;10522;52.198;9.890;2024-03-06T10:35:44;31.10;;;19.27;;
20721;SDS011;10522;52.198;9.890;2024-03-06T10:38:11;28.40;;;18.50;;
20721;SDS011;10522;52.198;9.890;2024-03-06T10:40:38;31.37;;;17.73;;
20721;SDS011;10522;52.198;9.890;2024-03-06T10:43:05;30.77;;;18.03;;
20721;SDS011;10522;52.198;9.890;2024-03-06T10:48:05;28.83;;;17.03;;
20721;SDS011;10522;52.198;9.890;2024-03-06T10:50:32;26.13;;;16.83;;
20721;SDS011;10522;52.198;9.890;2024-03-06T10:52:58;25.03;;;16.43;;
20721;SDS011;10522;52.198;9.890;2024-03-06T10:55:25;27.37;;;16.50;;
20721;SDS011;10522;52.198;9.890;2024-03-06T10:57:55;28.40;;;17.47;;
20721;SDS011;10522;52.198;9.890;2024-03-06T11:00:22;30.50;;;17.57;;
20721;SDS011;10522;52.198;9.890;2024-03-06T11:02:53;26.43;;;16.50;;
20721;SDS011;10522;52.198;9.890;2024-03-06T11:05:20;28.83;;;16.87;;
20721;SDS011;10522;52.198;9.890;2024-03-06T11:07:46;29.67;;;17.53;;
20721;SDS011;10522;52.198;9.890;2024-03-06T11:10:12;29.03;;;16.80;;
20721;SDS011;10522;52.198;9.890;2024-03-06T11:12:41;23.30;;;15.70;;
20721;SDS011;10522;52.198;9.890;2024-03-06T11:15:10;27.40;;;16.03;;
20721;SDS011;10522;52.198;9.890;2024-03-06T11:17:38;24.13;;;15.03;;
20721;SDS011;10522;52.198;9.890;2024-03-06T11:28:28;29.23;;;15.67;;
20721;SDS011;10522;52.198;9.890;2024-03-06T11:33:19;26.27;;;15.20;;
20721;SDS011;10522;52.198;9.890;2024-03-06T11:38:50;24.67;;;15.57;;
20721;SDS011;10522;52.198;9.890;2024-03-06T11:41:32;28.47;;;14.63;;
20721;SDS011;10522;52.198;9.890;2024-03-06T11:44:01;48.33;;;15.93;;
20721;SDS011;10522;52.198;9.890;2024-03-06T11:46:47;23.87;;;15.23;;
20721;SDS011;10522;52.198;9.890;2024-03-06T11:49:20;26.97;;;14.33;;
20721;SDS011;10522;52.198;9.890;2024-03-06T11:51:49;27.90;;;15.67;;
20721;SDS011;10522;52.198;9.890;2024-03-06T11:54:16;25.13;;;15.03;;
20721;SDS011;10522;52.198;9.890;2024-03-06T11:56:48;24.43;;;15.20;;
20721;SDS011;10522;52.198;9.890;2024-03-06T11:59:15;26.73;;;15.07;;
20721;SDS011;10522;52.198;9.890;2024-03-06T12:01:41;31.87;;;16.90;;
20721;SDS011;10522;52.198;9.890;2024-03-06T12:04:07;28.00;;;16.13;;
20721;SDS011;10522;52.198;9.890;2024-03-06T12:06:33;26.33;;;16.00;;
20721;SDS011;10522;52.198;9.890;2024-03-06T12:08:59;24.73;;;16.07;;
20721;SDS011;10522;52.198;9.890;2024-03-06T12:11:24;25.07;;;15.37;;
20721;SDS011;10522;52.198;9.890;2024-03-06T12:13:51;27.70;;;15.77;;
20721;SDS011;10522;52.198;9.890;2024-03-06T12:16:17;29.17;;;16.13;;
20721;SDS011;10522;52.198;9.890;2024-03-06T12:18:43;25.57;;;15.90;;
20721;SDS011;10522;52.198;9.890;2024-03-06T12:21:12;26.30;;;15.87;;
20721;SDS011;10522;52.198;9.890;2024-03-06T12:23:40;21.87;;;14.47;;
20721;SDS011;10522;52.198;9.890;2024-03-06T12:26:07;24.77;;;14.47;;
20721;SDS011;10522;52.198;9.890;2024-03-06T12:28:35;26.93;;;15.33;;
20721;SDS011;10522;52.198;9.890;2024-03-06T12:31:02;25.73;;;14.50;;
20721;SDS011;10522;52.198;9.890;2024-03-06T12:33:28;25.67;;;15.83;;
20721;SDS011;10522;52.198;9.890;2024-03-06T12:36:04;29.23;;;16.03;;
20721;SDS011;10522;52.198;9.890;2024-03-06T12:38:30;28.50;;;16.77;;
20721;SDS011;10522;52.198;9.890;2024-03-06T12:40:56;24.40;;;14.63;;
20721;SDS011;10522;52.198;9.890;2024-03-06T12:43:22;24.77;;;15.40;;
20721;SDS011;10522;52.198;9.890;2024-03-06T12:45:49;28.20;;;17.00;;
20721;SDS011;10522;52.198;9.890;2024-03-06T12:48:14;25.67;;;15.00;;
20721;SDS011;10522;52.198;9.890;2024-03-06T12:50:40;28.90;;;17.57;;
20721;SDS011;10522;52.198;9.890;2024-03-06T12:53:07;39.93;;;18.60;;
20721;SDS011;10522;52.198;9.890;2024-03-06T12:55:34;30.23;;;17.40;;
20721;SDS011;10522;52.198;9.890;2024-03-06T12:58:00;28.30;;;16.10;;
20721;SDS011;10522;52.198;9.890;2024-03-06T13:00:27;26.27;;;15.23;;
20721;SDS011;10522;52.198;9.890;2024-03-06T13:02:53;27.83;;;16.13;;
20721;SDS011;10522;52.198;9.890;2024-03-06T13:05:19;33.63;;;16.77;;
20721;SDS011;10522;52.198;9.890;2024-03-06T13:07:44;24.73;;;16.03;;
20721;SDS011;10522;52.198;9.890;2024-03-06T13:10:11;28.23;;;16.17;;
20721;SDS011;10522;52.198;9.890;2024-03-06T13:12:37;23.53;;;15.53;;
20721;SDS011;10522;52.198;9.890;2024-03-06T13:15:03;26.37;;;14.67;;
20721;SDS011;10522;52.198;9.890;2024-03-06T13:17:30;31.23;;;16.40;;
20721;SDS011;10522;52.198;9.890;2024-03-06T13:19:55;26.63;;;15.63;;
20721;SDS011;10522;52.198;9.890;2024-03-06T13:22:21;27.00;;;15.27;;
20721;SDS011;10522;52.198;9.890;2024-03-06T13:24:47;26.17;;;16.13;;
20721;SDS011;10522;52.198;9.890;2024-03-06T13:27:13;29.73;;;16.07;;
20721;SDS011;10522;52.198;9.890;2024-03-06T13:29:39;30.77;;;18.97;;
20721;SDS011;10522;52.198;9.890;2024-03-06T13:32:06;25.57;;;16.67;;
20721;SDS011;10522;52.198;9.890;2024-03-06T13:34:32;33.73;;;18.00;;
20721;SDS011;10522;52.198;9.890;2024-03-06T13:36:58;27.27;;;16.43;;
20721;SDS011;10522;52.198;9.890;2024-03-06T13:39:24;27.33;;;16.53;;
20721;SDS011;10522;52.198;9.890;2024-03-06T13:41:50;27.30;;;16.73;;
20721;SDS011;10522;52.198;9.890;2024-03-06T13:44:17;24.73;;;16.90;;
20721;SDS011;10522;52.198;9.890;2024-03-06T13:46:43;26.83;;;16.70;;
20721;SDS011;10522;52.198;9.890;2024-03-06T13:49:33;27.03;;;17.27;;
20721;SDS011;10522;52.198;9.890;2024-03-06T13:52:05;27.07;;;16.33;;
20721;SDS011;10522;52.198;9.890;2024-03-06T13:54:34;29.37;;;17.37;;
20721;SDS011;10522;52.198;9.890;2024-03-06T13:57:02;26.73;;;17.57;;
20721;SDS011;10522;52.198;9.890;2024-03-06T13:59:31;29.27;;;16.93;;
20721;SDS011;10522;52.198;9.890;2024-03-06T14:02:00;25.63;;;16.90;;
20721;SDS011;10522;52.198;9.890;2024-03-06T14:04:28;30.10;;;17.17;;
20721;SDS011;10522;52.198;9.890;2024-03-06T14:06:54;34.20;;;19.30;;
20721;SDS011;10522;52.198;9.890;2024-03-06T14:09:20;26.80;;;17.33;;
20721;SDS011;10522;52.198;9.890;2024-03-06T14:11:48;28.37;;;18.10;;
20721;SDS011;10522;52.198;9.890;2024-03-06T14:14:15;29.67;;;20.20;;
20721;SDS011;10522;52.198;9.890;2024-03-06T14:16:41;40.10;;;19.77;;
20721;SDS011;10522;52.198;9.890;2024-03-06T14:19:07;29.77;;;17.83;;
20721;SDS011;10522;52.198;9.890;2024-03-06T14:21:33;28.50;;;17.17;;
20721;SDS011;10522;52.198;9.890;2024-03-06T14:24:00;27.87;;;17.03;;
20721;SDS011;10522;52.198;9.890;2024-03-06T14:26:29;31.30;;;17.30;;
20721;SDS011;10522;52.198;9.890;2024-03-06T14:28:55;27.93;;;16.30;;
20721;SDS011;10522;52.198;9.890;2024-03-06T14:31:20;31.43;;;16.77;;
20721;SDS011;10522;52.198;9.890;2024-03-06T14:33:46;31.23;;;18.20;;
20721;SDS011;10522;52.198;9.890;2024-03-06T14:36:13;29.17;;;17.83;;